createdAt,value
2023-01-30T00:01:57.185Z,4.20
2023-01-30T00:04:25.716Z,4.20
2023-01-30T00:06:55.397Z,4.30
2023-01-30T00:09:26.300Z,4.30
2023-01-30T00:11:54.578Z,4.20
2023-01-30T00:14:22.853Z,4.40
2023-01-30T00:16:53.353Z,4.30
2023-01-30T00:19:21.914Z,4.20
2023-01-30T00:21:50.133Z,4.20
2023-01-30T00:24:22.067Z,4.30
2023-01-30T00:26:50.411Z,4.20
2023-01-30T00:29:18.654Z,4.30
2023-01-30T00:31:46.930Z,4.20
2023-01-30T00:34:15.153Z,4.30
2023-01-30T00:36:43.354Z,4.30
2023-01-30T00:39:11.551Z,4.40
2023-01-30T00:41:58.481Z,4.30
2023-01-30T00:44:44.166Z,4.40
2023-01-30T00:47:12.861Z,4.40
2023-01-30T00:49:42.279Z,4.40
2023-01-30T00:52:10.519Z,4.40
2023-01-30T00:54:38.804Z,4.50
2023-01-30T00:57:08.381Z,4.50
2023-01-30T00:59:36.687Z,4.50
2023-01-30T01:02:05.531Z,4.60
2023-01-30T01:04:43.232Z,4.60
2023-01-30T01:07:13.482Z,4.50
2023-01-30T01:09:42.095Z,4.60
2023-01-30T01:12:11.709Z,4.50
2023-01-30T01:14:40.000Z,4.70
2023-01-30T01:17:08.437Z,4.70
2023-01-30T01:19:36.819Z,4.70
2023-01-30T01:22:05.036Z,4.70
2023-01-30T01:24:34.528Z,4.70
2023-01-30T01:27:02.772Z,4.70
2023-01-30T01:29:32.410Z,4.70
2023-01-30T01:32:00.720Z,4.60
2023-01-30T01:34:29.448Z,4.70
2023-01-30T01:36:57.730Z,4.80
2023-01-30T01:39:46.033Z,4.90
2023-01-30T01:42:13.585Z,4.90
2023-01-30T01:45:12.499Z,5.00
2023-01-30T01:47:44.517Z,4.90
2023-01-30T01:50:16.114Z,4.90
2023-01-30T01:52:45.580Z,4.90
2023-01-30T01:55:14.813Z,5.00
2023-01-30T01:57:48.065Z,5.10
2023-01-30T02:00:20.727Z,5.00
2023-01-30T02:02:53.059Z,5.00
2023-01-30T02:05:21.888Z,5.00
2023-01-30T02:07:54.722Z,5.10
2023-01-30T02:10:28.248Z,5.10
2023-01-30T02:12:56.665Z,5.10
2023-01-30T02:15:26.327Z,5.10
2023-01-30T02:17:56.330Z,5.20
2023-01-30T02:20:32.555Z,5.20
2023-01-30T02:23:39.439Z,5.20
2023-01-30T02:26:40.930Z,5.20
2023-01-30T02:29:36.977Z,5.20
2023-01-30T02:32:12.919Z,5.30
2023-01-30T02:34:49.507Z,5.30
2023-01-30T02:37:31.044Z,5.30
2023-01-30T02:40:12.282Z,5.30
2023-01-30T02:42:49.839Z,5.30
2023-01-30T02:45:25.026Z,5.40
2023-01-30T02:48:01.769Z,5.40
2023-01-30T02:50:35.924Z,5.40
2023-01-30T02:53:06.003Z,5.40
2023-01-30T02:55:34.618Z,5.40
2023-01-30T02:58:04.462Z,5.40
2023-01-30T03:00:51.794Z,5.40
2023-01-30T03:03:48.111Z,5.50
2023-01-30T03:06:33.021Z,5.40
2023-01-30T03:09:14.586Z,5.30
2023-01-30T03:11:48.839Z,5.40
2023-01-30T03:14:24.352Z,5.50
2023-01-30T03:16:56.010Z,5.50
2023-01-30T03:19:25.869Z,5.60
2023-01-30T03:21:54.282Z,5.60
2023-01-30T03:24:22.867Z,5.60
2023-01-30T03:26:55.709Z,5.60
2023-01-30T03:29:24.020Z,5.60
2023-01-30T03:31:52.641Z,5.70
2023-01-30T03:34:20.915Z,5.70
2023-01-30T03:36:50.619Z,5.70
2023-01-30T03:39:18.959Z,5.80
2023-01-30T03:41:47.635Z,5.80
2023-01-30T03:44:18.494Z,5.80
2023-01-30T03:46:47.273Z,5.80
2023-01-30T03:49:15.624Z,5.80
2023-01-30T03:51:43.923Z,5.80
2023-01-30T03:54:13.575Z,5.80
2023-01-30T03:56:41.792Z,5.80
2023-01-30T03:59:10.349Z,5.90
2023-01-30T04:01:44.628Z,5.90
2023-01-30T04:04:13.007Z,6.00
2023-01-30T04:06:43.249Z,6.00
2023-01-30T04:09:13.220Z,5.90
2023-01-30T04:11:45.855Z,6.00
2023-01-30T04:14:14.513Z,6.00
2023-01-30T04:17:01.143Z,6.00
2023-01-30T04:19:46.870Z,5.90
2023-01-30T04:22:15.494Z,6.00
2023-01-30T04:24:45.524Z,6.00
2023-01-30T04:27:13.872Z,6.10
2023-01-30T04:29:57.793Z,6.10
2023-01-30T04:32:27.224Z,6.10
2023-01-30T04:34:55.810Z,6.10
2023-01-30T04:37:24.080Z,6.20
2023-01-30T04:39:53.853Z,6.00
2023-01-30T04:42:23.030Z,6.10
2023-01-30T04:45:12.060Z,6.00
2023-01-30T04:47:40.576Z,6.00
2023-01-30T04:50:12.272Z,6.00
2023-01-30T04:52:40.571Z,5.90
2023-01-30T04:55:12.793Z,5.80
2023-01-30T04:57:41.921Z,5.70
2023-01-30T05:00:11.890Z,5.70
2023-01-30T05:02:46.822Z,5.70
2023-01-30T05:05:15.426Z,5.70
2023-01-30T05:07:44.176Z,5.70
2023-01-30T05:10:14.174Z,5.70
2023-01-30T05:12:42.485Z,5.70
2023-01-30T05:15:11.973Z,5.70
2023-01-30T05:17:41.963Z,5.70
2023-01-30T05:20:13.430Z,5.70
2023-01-30T05:22:41.686Z,5.70
2023-01-30T05:25:11.322Z,5.70
2023-01-30T05:27:40.969Z,5.70
2023-01-30T05:30:10.853Z,5.80
2023-01-30T05:32:39.119Z,5.80
2023-01-30T05:35:08.951Z,5.80
2023-01-30T05:37:37.863Z,5.70
2023-01-30T05:40:07.323Z,5.80
2023-01-30T05:42:35.594Z,5.80
2023-01-30T05:45:05.598Z,5.80
2023-01-30T05:47:33.890Z,5.80
2023-01-30T05:50:02.136Z,5.90
2023-01-30T05:52:30.369Z,5.90
2023-01-30T05:54:58.637Z,6.00
2023-01-30T05:57:26.876Z,6.00
2023-01-30T05:59:55.095Z,6.00
2023-01-30T06:02:24.775Z,6.10
2023-01-30T06:04:53.052Z,6.10
2023-01-30T06:07:21.441Z,6.20
2023-01-30T06:09:49.708Z,6.20
2023-01-30T06:12:18.099Z,6.30
2023-01-30T06:14:46.405Z,6.30
2023-01-30T06:17:14.625Z,6.20
2023-01-30T06:19:44.168Z,6.30
2023-01-30T06:22:12.439Z,6.20
2023-01-30T06:24:40.672Z,6.20
2023-01-30T06:27:08.979Z,6.30
2023-01-30T06:29:37.264Z,6.30
2023-01-30T06:32:06.027Z,6.40
2023-01-30T06:34:34.269Z,6.40
2023-01-30T06:37:03.972Z,6.50
2023-01-30T06:39:32.301Z,6.50
2023-01-30T06:42:00.558Z,6.50
2023-01-30T06:44:28.901Z,6.60
2023-01-30T06:46:57.175Z,6.60
2023-01-30T06:49:26.401Z,6.60
2023-01-30T06:51:54.652Z,6.60
2023-01-30T06:54:26.271Z,6.70
2023-01-30T06:56:55.321Z,6.60
2023-01-30T06:59:23.924Z,6.70
2023-01-30T07:01:54.542Z,6.80
2023-01-30T07:04:22.932Z,6.80
2023-01-30T07:06:51.251Z,6.80
2023-01-30T07:09:19.573Z,6.90
2023-01-30T07:11:50.945Z,6.90
2023-01-30T07:14:19.139Z,7.00
2023-01-30T07:16:47.408Z,7.00
2023-01-30T07:19:15.700Z,7.00
2023-01-30T07:21:43.950Z,7.00
2023-01-30T07:24:12.214Z,7.00
2023-01-30T07:26:40.427Z,7.10
2023-01-30T07:29:09.968Z,7.00
2023-01-30T07:31:38.211Z,7.00
2023-01-30T07:34:06.490Z,7.10
2023-01-30T07:36:34.858Z,7.10
2023-01-30T07:39:03.112Z,7.10
2023-01-30T07:41:32.454Z,7.10
2023-01-30T07:44:00.725Z,7.10
2023-01-30T07:46:34.917Z,7.20
2023-01-30T07:49:03.586Z,7.20
2023-01-30T07:51:31.980Z,7.20
2023-01-30T07:54:00.952Z,7.20
2023-01-30T07:56:29.538Z,7.20
2023-01-30T07:58:58.322Z,7.30
2023-01-30T08:01:26.882Z,7.20
2023-01-30T08:03:56.646Z,7.20
2023-01-30T08:06:24.966Z,7.20
2023-01-30T08:08:53.204Z,7.20
2023-01-30T08:11:21.517Z,7.30
2023-01-30T08:13:49.735Z,7.40
2023-01-30T08:16:18.054Z,7.40
2023-01-30T08:18:46.300Z,7.50
2023-01-30T08:21:15.981Z,7.40
2023-01-30T08:23:44.192Z,7.50
2023-01-30T08:26:19.734Z,7.60
2023-01-30T08:28:48.070Z,7.60
2023-01-30T08:31:17.623Z,7.60
2023-01-30T08:33:46.190Z,7.70
2023-01-30T08:36:15.758Z,7.70
2023-01-30T08:38:44.095Z,7.70
2023-01-30T08:41:12.440Z,7.70
2023-01-30T08:43:40.756Z,7.70
2023-01-30T08:46:09.027Z,7.80
2023-01-30T08:48:49.543Z,7.80
2023-01-30T08:51:20.308Z,7.80
2023-01-30T08:53:48.603Z,7.80
2023-01-30T08:56:16.845Z,7.80
2023-01-30T08:58:46.571Z,8.00
2023-01-30T09:01:14.910Z,8.00
2023-01-30T09:03:43.260Z,8.00
2023-01-30T09:06:22.713Z,7.90
2023-01-30T09:08:52.030Z,7.90
2023-01-30T09:11:20.257Z,7.80
2023-01-30T09:13:49.792Z,7.70
2023-01-30T09:16:18.382Z,7.70
2023-01-30T09:18:46.744Z,7.70
2023-01-30T09:21:15.380Z,7.70
2023-01-30T09:23:45.100Z,7.70
2023-01-30T09:26:13.338Z,7.60
2023-01-30T09:28:44.767Z,7.60
2023-01-30T09:31:13.174Z,7.60
2023-01-30T09:33:41.425Z,7.60
2023-01-30T09:36:10.498Z,7.70
2023-01-30T09:38:38.675Z,7.70
2023-01-30T09:41:34.828Z,7.70
2023-01-30T09:44:21.648Z,7.80
2023-01-30T09:46:56.126Z,7.80
2023-01-30T09:49:33.967Z,7.80
2023-01-30T09:52:14.740Z,7.80
2023-01-30T09:54:46.290Z,7.80
2023-01-30T09:57:20.092Z,7.80
2023-01-30T09:59:58.768Z,7.70
2023-01-30T10:02:40.610Z,7.70
2023-01-30T10:05:09.456Z,7.80
2023-01-30T10:07:48.767Z,7.80
2023-01-30T10:10:37.471Z,7.80
2023-01-30T10:13:14.643Z,7.80
2023-01-30T10:15:53.301Z,7.80
2023-01-30T10:18:47.872Z,7.80
2023-01-30T10:21:25.196Z,7.90
2023-01-30T10:24:09.716Z,7.90
2023-01-30T10:26:40.874Z,7.90
2023-01-30T10:29:16.445Z,7.90
2023-01-30T10:31:48.624Z,8.00
2023-01-30T10:34:23.594Z,8.00
2023-01-30T10:36:58.142Z,8.00
2023-01-30T10:39:32.480Z,8.00
2023-01-30T10:42:11.794Z,8.00
2023-01-30T10:44:43.922Z,8.00
2023-01-30T10:47:46.680Z,8.10
2023-01-30T10:50:18.784Z,8.30
2023-01-30T10:52:56.579Z,8.40
2023-01-30T10:55:37.738Z,8.40
2023-01-30T10:58:16.394Z,8.50
2023-01-30T11:00:53.005Z,8.60
2023-01-30T11:03:27.520Z,8.80
2023-01-30T11:06:00.835Z,9.00
2023-01-30T11:08:31.785Z,9.30
2023-01-30T11:11:00.730Z,9.30
2023-01-30T11:13:31.484Z,9.30
2023-01-30T11:16:06.157Z,9.40
2023-01-30T11:21:43.551Z,8.80
2023-01-30T11:24:18.415Z,8.70
2023-01-30T11:26:48.440Z,8.80
2023-01-30T11:29:25.670Z,8.70
2023-01-30T11:32:01.913Z,8.80
2023-01-30T11:34:30.320Z,8.90
2023-01-30T11:37:15.819Z,8.80
2023-01-30T11:39:52.191Z,8.80
2023-01-30T11:42:21.631Z,8.70
2023-01-30T11:45:10.799Z,8.70
2023-01-30T11:47:57.226Z,8.70
2023-01-30T11:50:37.128Z,8.70
2023-01-30T11:53:25.310Z,8.70
2023-01-30T11:56:05.494Z,8.80
2023-01-30T11:58:39.489Z,8.90
2023-01-30T12:01:10.461Z,9.00
2023-01-30T12:03:48.321Z,9.00
2023-01-30T12:06:24.499Z,9.10
2023-01-30T12:08:55.931Z,9.00
2023-01-30T12:11:29.548Z,9.00
2023-01-30T12:14:16.582Z,9.00
2023-01-30T12:16:55.168Z,8.80
2023-01-30T12:19:51.435Z,8.80
2023-01-30T12:22:28.989Z,8.70
2023-01-30T12:25:00.664Z,8.70
2023-01-30T12:27:47.134Z,8.60
2023-01-30T12:30:27.728Z,8.50
2023-01-30T12:35:56.775Z,8.40
2023-01-30T12:38:42.618Z,8.30
2023-01-30T12:41:29.677Z,8.30
2023-01-30T12:44:17.631Z,8.40
2023-01-30T12:46:59.347Z,8.40
2023-01-30T12:49:47.659Z,8.40
2023-01-30T12:52:40.946Z,8.40
2023-01-30T12:55:23.665Z,8.40
2023-01-30T12:57:58.219Z,8.40
2023-01-30T13:00:38.829Z,8.40
2023-01-30T13:03:23.568Z,8.40
2023-01-30T13:05:57.961Z,8.50
2023-01-30T13:08:44.891Z,8.30
2023-01-30T13:11:29.092Z,8.30
2023-01-30T13:14:04.284Z,8.10
2023-01-30T13:16:42.774Z,8.20
2023-01-30T13:19:21.155Z,8.10
2023-01-30T13:21:57.407Z,8.00
2023-01-30T13:24:42.846Z,8.10
2023-01-30T13:27:16.891Z,8.20
2023-01-30T13:29:46.956Z,8.20
2023-01-30T13:32:22.303Z,8.00
2023-01-30T13:34:51.387Z,8.10
2023-01-30T13:37:20.881Z,8.10
2023-01-30T13:39:53.917Z,8.00
2023-01-30T13:42:31.063Z,8.00
2023-01-30T13:45:00.599Z,8.00
2023-01-30T13:47:43.591Z,8.00
2023-01-30T13:50:26.332Z,8.00
2023-01-30T13:53:01.846Z,7.90
2023-01-30T13:55:39.303Z,8.00
2023-01-30T13:58:17.734Z,8.00
2023-01-30T14:00:53.960Z,8.00
2023-01-30T14:03:31.676Z,8.00
2023-01-30T14:06:34.016Z,8.00
2023-01-30T14:09:06.687Z,8.00
2023-01-30T14:11:47.875Z,8.00
2023-01-30T14:14:29.335Z,8.10
2023-01-30T14:17:07.993Z,8.30
2023-01-30T14:19:40.146Z,8.40
2023-01-30T14:22:32.128Z,8.40
2023-01-30T14:25:35.469Z,8.30
2023-01-30T14:28:50.903Z,8.20
2023-01-30T14:31:53.790Z,8.30
2023-01-30T14:34:50.090Z,8.40
2023-01-30T14:37:45.900Z,8.30
2023-01-30T14:40:39.910Z,8.20
2023-01-30T14:43:37.695Z,8.30
2023-01-30T14:46:08.978Z,8.30
2023-01-30T14:48:44.611Z,8.40
2023-01-30T14:51:23.701Z,8.30
2023-01-30T14:53:56.010Z,8.30
2023-01-30T14:56:41.381Z,8.30
2023-01-30T14:59:19.192Z,8.10
2023-01-30T15:02:00.535Z,8.10
2023-01-30T15:04:33.440Z,8.10
2023-01-30T15:07:07.586Z,8.10
2023-01-30T15:09:37.817Z,8.10
2023-01-30T15:12:35.419Z,8.00
2023-01-30T15:15:14.986Z,7.90
2023-01-30T15:18:07.210Z,7.80
2023-01-30T15:20:52.825Z,7.70
2023-01-30T15:23:49.314Z,7.60
2023-01-30T15:26:29.047Z,7.40
2023-01-30T15:29:09.586Z,7.40
2023-01-30T15:31:37.828Z,7.40
2023-01-30T15:34:20.108Z,7.40
2023-01-30T15:36:49.942Z,7.40
2023-01-30T15:39:21.588Z,7.40
2023-01-30T15:41:52.526Z,7.50
2023-01-30T15:44:57.496Z,7.60
2023-01-30T15:48:04.680Z,7.60
2023-01-30T15:50:33.080Z,7.70
2023-01-30T15:53:03.045Z,7.70
2023-01-30T15:55:34.883Z,7.70
2023-01-30T15:58:06.529Z,7.80
2023-01-30T16:00:37.418Z,7.70
2023-01-30T16:03:11.679Z,7.60
2023-01-30T16:05:48.308Z,7.60
2023-01-30T16:08:23.579Z,7.60
2023-01-30T16:10:51.922Z,7.50
2023-01-30T16:13:22.457Z,7.40
2023-01-30T16:15:56.134Z,7.40
2023-01-30T16:18:32.770Z,7.40
2023-01-30T16:21:03.487Z,7.40
2023-01-30T16:23:36.689Z,7.40
2023-01-30T16:26:07.814Z,7.40
2023-01-30T16:28:36.459Z,7.40
2023-01-30T16:31:07.716Z,7.40
2023-01-30T16:33:37.112Z,7.30
2023-01-30T16:36:07.645Z,7.30
2023-01-30T16:38:45.215Z,7.30
2023-01-30T16:41:34.518Z,7.20
2023-01-30T16:44:11.124Z,7.20
2023-01-30T16:46:54.912Z,7.30
2023-01-30T16:49:24.878Z,7.30
2023-01-30T16:52:03.211Z,7.30
2023-01-30T16:54:34.866Z,7.40
2023-01-30T16:57:04.290Z,7.40
2023-01-30T16:59:34.262Z,7.30
2023-01-30T17:02:05.465Z,7.30
2023-01-30T17:04:35.749Z,7.30
2023-01-30T17:07:05.804Z,7.30
2023-01-30T17:09:42.978Z,7.40
2023-01-30T17:12:38.076Z,7.30
2023-01-30T17:15:33.951Z,7.20
2023-01-30T17:18:02.644Z,7.10
2023-01-30T17:20:40.879Z,7.00
2023-01-30T17:23:16.875Z,7.00
2023-01-30T17:25:48.953Z,7.00
2023-01-30T17:28:24.185Z,6.90
2023-01-30T17:30:57.684Z,6.80
2023-01-30T17:33:26.270Z,6.60
2023-01-30T17:35:54.558Z,6.50
2023-01-30T17:38:22.833Z,6.60
2023-01-30T17:40:52.479Z,6.60
2023-01-30T17:43:20.759Z,6.50
2023-01-30T17:45:49.160Z,6.50
2023-01-30T17:48:17.430Z,6.50
2023-01-30T17:50:45.619Z,6.50
2023-01-30T17:53:13.898Z,6.30
2023-01-30T17:55:42.080Z,6.20
2023-01-30T17:58:17.375Z,6.10
2023-01-30T18:00:45.684Z,6.10
2023-01-30T18:03:15.554Z,6.20
2023-01-30T18:05:44.016Z,6.10
2023-01-30T18:08:13.937Z,6.00
2023-01-30T18:10:42.313Z,6.00
2023-01-30T18:13:10.595Z,6.00
2023-01-30T18:15:40.169Z,5.90
2023-01-30T18:18:12.796Z,5.90
2023-01-30T18:20:41.005Z,5.80
2023-01-30T18:23:09.191Z,5.80
2023-01-30T18:25:37.422Z,5.90
2023-01-30T18:28:08.574Z,5.70
2023-01-30T18:30:37.343Z,5.60
2023-01-30T18:33:07.328Z,5.60
2023-01-30T18:35:35.624Z,5.50
2023-01-30T18:38:03.914Z,5.60
2023-01-30T18:40:32.145Z,5.60
2023-01-30T18:43:00.351Z,5.70
2023-01-30T18:45:28.621Z,5.70
2023-01-30T18:47:56.892Z,5.80
2023-01-30T18:50:26.550Z,5.70
2023-01-30T18:52:54.776Z,5.70
2023-01-30T18:55:25.388Z,5.60
2023-01-30T18:57:53.867Z,5.60
2023-01-30T19:00:23.282Z,5.50
2023-01-30T19:02:52.912Z,5.50
2023-01-30T19:05:21.654Z,5.30
2023-01-30T19:07:52.276Z,5.40
2023-01-30T19:10:20.775Z,5.30
2023-01-30T19:13:06.526Z,5.20
2023-01-30T19:15:36.602Z,5.10
2023-01-30T19:18:05.039Z,5.10
2023-01-30T19:20:33.279Z,4.90
2023-01-30T19:23:02.912Z,4.90
2023-01-30T19:25:31.121Z,4.70
2023-01-30T19:27:59.651Z,4.70
2023-01-30T19:30:29.364Z,4.70
2023-01-30T19:32:59.092Z,4.60
2023-01-30T19:35:27.432Z,4.50
2023-01-30T19:38:00.161Z,4.50
2023-01-30T19:40:29.860Z,4.50
2023-01-30T19:43:09.280Z,4.50
2023-01-30T19:45:38.952Z,4.60
2023-01-30T19:48:08.561Z,4.60
2023-01-30T19:50:37.846Z,4.60
2023-01-30T19:53:06.117Z,4.60
2023-01-30T19:55:35.991Z,4.70
2023-01-30T19:58:04.866Z,4.70
2023-01-30T20:00:33.189Z,4.70
2023-01-30T20:03:02.467Z,4.80
2023-01-30T20:05:30.773Z,4.70
2023-01-30T20:07:58.985Z,4.70
2023-01-30T20:10:27.246Z,4.60
2023-01-30T20:12:57.008Z,4.50
2023-01-30T20:15:25.281Z,4.40
2023-01-30T20:17:53.516Z,4.40
2023-01-30T20:20:22.105Z,4.30
2023-01-30T20:22:50.481Z,4.30
2023-01-30T20:25:18.792Z,4.30
2023-01-30T20:27:47.085Z,4.20
2023-01-30T20:30:19.557Z,4.30
2023-01-30T20:32:48.320Z,4.30
2023-01-30T20:35:17.672Z,4.30
2023-01-30T20:37:45.855Z,4.40
2023-01-30T20:40:14.853Z,4.40
2023-01-30T20:42:43.176Z,4.40
2023-01-30T20:45:11.985Z,4.50
2023-01-30T20:47:42.058Z,4.30
2023-01-30T20:50:13.638Z,4.20
2023-01-30T20:52:43.553Z,4.10
2023-01-30T20:55:11.825Z,4.10
2023-01-30T20:57:43.127Z,4.10
2023-01-30T21:00:12.904Z,3.90
2023-01-30T21:02:42.740Z,3.90
2023-01-30T21:05:11.132Z,4.00
2023-01-30T21:07:39.378Z,4.00
2023-01-30T21:10:08.140Z,4.00
2023-01-30T21:12:36.965Z,3.90
2023-01-30T21:15:05.895Z,3.90
2023-01-30T21:17:34.192Z,3.90
2023-01-30T21:20:03.850Z,3.80
2023-01-30T21:22:32.077Z,3.90
2023-01-30T21:25:00.916Z,3.90
2023-01-30T21:27:29.229Z,3.90
2023-01-30T21:29:57.433Z,3.90
2023-01-30T21:32:25.681Z,3.90
2023-01-30T21:34:54.004Z,3.80
2023-01-30T21:37:43.121Z,3.80
2023-01-30T21:40:30.315Z,3.70
2023-01-30T21:43:16.455Z,3.70
2023-01-30T21:45:45.131Z,3.60
2023-01-30T21:48:13.401Z,3.60
2023-01-30T21:50:41.600Z,3.50
2023-01-30T21:53:11.190Z,3.50
2023-01-30T21:55:39.371Z,3.50
2023-01-30T21:58:07.538Z,3.40
2023-01-30T22:00:36.633Z,3.50
2023-01-30T22:03:05.125Z,3.40
2023-01-30T22:05:36.564Z,3.50
2023-01-30T22:08:05.991Z,3.50
2023-01-30T22:10:35.626Z,3.30
2023-01-30T22:13:03.871Z,3.30
2023-01-30T22:15:33.749Z,3.30
2023-01-30T22:18:03.507Z,3.20
2023-01-30T22:20:31.736Z,3.20
2023-01-30T22:22:59.913Z,3.10
2023-01-30T22:25:28.231Z,3.10
2023-01-30T22:27:57.855Z,3.10
2023-01-30T22:30:26.086Z,3.10
2023-01-30T22:32:55.405Z,3.20
2023-01-30T22:35:23.865Z,3.00
2023-01-30T22:37:52.035Z,2.90
2023-01-30T22:40:21.232Z,2.90
2023-01-30T22:42:50.156Z,2.90
2023-01-30T22:45:20.144Z,2.90
2023-01-30T22:47:48.544Z,2.90
2023-01-30T22:50:17.216Z,2.90
2023-01-30T22:52:45.466Z,2.90
2023-01-30T22:55:13.684Z,2.80
2023-01-30T22:57:41.961Z,2.70
2023-01-30T23:00:12.040Z,2.70
2023-01-30T23:02:41.645Z,2.70
2023-01-30T23:05:10.188Z,2.60
2023-01-30T23:07:38.412Z,2.60
2023-01-30T23:10:07.147Z,2.60
2023-01-30T23:12:53.029Z,2.60
2023-01-30T23:15:21.538Z,2.70
2023-01-30T23:18:08.890Z,2.70
2023-01-30T23:20:37.082Z,2.70
2023-01-30T23:23:06.871Z,2.70
2023-01-30T23:25:35.448Z,2.60
2023-01-30T23:28:03.664Z,2.60
2023-01-30T23:30:31.968Z,2.60
2023-01-30T23:33:01.582Z,2.70
2023-01-30T23:35:29.999Z,2.70
2023-01-30T23:38:15.544Z,2.70
2023-01-30T23:40:44.266Z,2.70
2023-01-30T23:43:12.466Z,2.60
2023-01-30T23:45:40.731Z,2.70
2023-01-30T23:48:10.604Z,2.60
2023-01-30T23:50:40.022Z,2.60
2023-01-30T23:53:10.181Z,2.70
2023-01-30T23:55:38.661Z,2.70
2023-01-30T23:58:06.929Z,2.70
